Mojave, CA

4:16 PM PST on December 08, 2019 (GMT -0800)
Mojave

Weather History for KMHV - October, 2019

Change the Weather History Date:

Friday, October 4, 2019

  Actual Average Record
Temperature  
Mean Temperature 68 °F -  
Max Temperature 78 °F 84 °F 100 °F (1980)
Min Temperature 57 °F 54 °F 36 °F (1969)
Cooling Degree Days 2    
Growing Degree Days 18 (Base 50)    
Moisture  
Dew Point 30 °F    
Average Humidity 27    
Maximum Humidity 39    
Minimum Humidity 16    
Precipitation  
Precipitation 0.00 in - - ()
Sea Level Pressure  
Sea Level Pressure 30.02 in    
Wind  
Wind Speed 15 mph (West)    
Max Wind Speed 31 mph    
Max Gust Speed 39 mph    
Visibility 10 miles    
Events      
Averages and records for this station are not official NWS values.
T = Trace of Precipitation, MM = Missing Value Source: NWS Daily Summary

Daily Weather History Graph

Daily Weather History Graph

Search for Another Location

Airport or City:

Astronomy

Oct. 04, 2019 Rise Set
Actual Time 6:49 AM PDT 6:32 PM PDT
Civil Twilight 6:24 AM PDT 6:57 PM PDT
Nautical Twilight 5:54 AM PDT 7:27 PM PDT
Astronomical Twilight 5:25 AM PDT 7:56 PM PDT
Moon 1:13 PM PDT (10/4) 11:18 PM PDT (10/4)
Length of Visible Light 12h 33m
Length of Day
11h 42m
Waxing Crescent, 41% of the Moon is Illuminated
Oct 4
Waxing Crescent
Oct 5
First Quarter
Oct 13
Full
Oct 21
Last Quarter
Oct 27
New

Hourly Weather History & Observations

Time (PDT) Temp. Dew Point Humidity Pressure Visibility Wind Dir Wind Speed Gust Speed Precip Events Conditions
12:00 AM 62.6 °F 28.4 °F 27% 29.99 in 10.0 mi WSW 8.1 mph - N/A   Clear
12:20 AM 62.6 °F 30.2 °F 30% 29.98 in 10.0 mi NNW 5.8 mph - N/A   Clear
12:40 AM 62.6 °F 30.2 °F 30% 29.98 in 10.0 mi Variable 5.8 mph 17.3 mph N/A   Clear
1:00 AM 60.8 °F 30.2 °F 31% 29.98 in 10.0 mi WSW 11.5 mph - N/A   Partly Cloudy
1:20 AM 62.6 °F 30.2 °F 30% 29.98 in 10.0 mi West 15.0 mph 23.0 mph N/A   Clear
1:40 AM 62.6 °F 30.2 °F 30% 29.99 in 10.0 mi Variable 5.8 mph 25.3 mph N/A   Clear
2:00 AM 62.6 °F 30.2 °F 30% 29.99 in 10.0 mi Variable 4.6 mph 11.5 mph N/A   Partly Cloudy
2:20 AM 60.8 °F 32.0 °F 34% 29.99 in 10.0 mi Variable 3.5 mph 19.6 mph N/A   Scattered Clouds
2:40 AM 60.8 °F 32.0 °F 34% 29.99 in 10.0 mi Calm Calm 11.5 mph N/A   Mostly Cloudy
3:00 AM 60.8 °F 33.8 °F 36% 29.98 in 10.0 mi North - - N/A   Mostly Cloudy
3:20 AM 59.0 °F 33.8 °F 39% 29.98 in 10.0 mi NW 19.6 mph - N/A   Clear
3:40 AM 59.0 °F 33.8 °F 39% 29.97 in 10.0 mi WNW 28.8 mph 36.8 mph N/A   Clear
4:00 AM 59.0 °F 33.8 °F 39% 29.98 in 10.0 mi NW 31.1 mph 39.1 mph N/A   Clear
4:20 AM 59.0 °F 33.8 °F 39% 30.01 in 10.0 mi WNW 18.4 mph 28.8 mph N/A   Clear
4:40 AM 59.0 °F 32.0 °F 36% 30.02 in 10.0 mi WSW 13.8 mph 20.7 mph N/A   Partly Cloudy
5:00 AM 59.0 °F 32.0 °F 36% 30.02 in 10.0 mi WSW 15.0 mph 23.0 mph N/A   Partly Cloudy
5:20 AM 59.0 °F 30.2 °F 34% 30.02 in 10.0 mi WSW 19.6 mph - N/A   Partly Cloudy
5:40 AM 59.0 °F 30.2 °F 34% 30.01 in 10.0 mi WSW 27.6 mph 33.4 mph N/A   Scattered Clouds
6:00 AM 57.2 °F 30.2 °F 36% 30.01 in 10.0 mi WSW 28.8 mph 38.0 mph N/A   Partly Cloudy
6:20 AM 57.2 °F 30.2 °F 36% 30.00 in 10.0 mi WSW 29.9 mph - N/A   Partly Cloudy
6:40 AM 57.2 °F 30.2 °F 36% 30.01 in 10.0 mi WSW 26.5 mph - N/A   Clear
7:00 AM 57.2 °F 28.4 °F 33% 30.01 in 10.0 mi West 27.6 mph 34.5 mph N/A   Clear
7:20 AM 57.2 °F 28.4 °F 33% 30.01 in 10.0 mi West 25.3 mph 33.4 mph N/A   Clear
7:40 AM 59.0 °F 30.2 °F 34% 30.01 in 10.0 mi WSW 25.3 mph 31.1 mph N/A   Clear
8:00 AM 59.0 °F 28.4 °F 31% 30.01 in 10.0 mi WSW 27.6 mph 33.4 mph N/A   Clear
8:20 AM 60.8 °F 30.2 °F 31% 30.02 in 10.0 mi WSW 20.7 mph 31.1 mph N/A   Clear
8:40 AM 62.6 °F 30.2 °F 30% 30.03 in 10.0 mi WSW 13.8 mph 29.9 mph N/A   Clear
9:00 AM 64.4 °F 30.2 °F 28% 30.04 in 10.0 mi WSW 17.3 mph 26.5 mph N/A   Clear
9:20 AM 64.4 °F 30.2 °F 28% 30.03 in 10.0 mi West 21.9 mph 29.9 mph N/A   Clear
9:40 AM 66.2 °F 30.2 °F 26% 30.04 in 10.0 mi West 20.7 mph 31.1 mph N/A   Clear
10:00 AM 68.0 °F 30.2 °F 24% 30.03 in 10.0 mi West 27.6 mph - N/A   Clear
10:20 AM 68.0 °F 30.2 °F 24% 30.03 in 10.0 mi West 25.3 mph 33.4 mph N/A   Clear
10:40 AM 69.8 °F 30.2 °F 23% 30.03 in 10.0 mi West 23.0 mph - N/A   Clear
11:00 AM 69.8 °F 30.2 °F 23% 30.03 in 10.0 mi West 24.2 mph 32.2 mph N/A   Clear
11:20 AM 69.8 °F 30.2 °F 23% 30.03 in 10.0 mi West 24.2 mph 34.5 mph N/A   Clear
11:40 AM 71.6 °F 30.2 °F 22% 30.02 in 10.0 mi West 24.2 mph 34.5 mph N/A   Clear
12:00 PM 71.6 °F 28.4 °F 20% 30.02 in 10.0 mi West 26.5 mph 35.7 mph N/A   Clear
12:20 PM 73.4 °F 28.4 °F 19% 30.02 in 10.0 mi West 24.2 mph - N/A   Clear
12:40 PM 75.2 °F 28.4 °F 18% 30.02 in 10.0 mi West 18.4 mph 27.6 mph N/A   Clear
1:00 PM 75.2 °F 28.4 °F 18% 30.02 in 10.0 mi West 19.6 mph - N/A   Clear
1:20 PM 77.0 °F 28.4 °F 17% 30.02 in 10.0 mi West 19.6 mph - N/A   Clear
1:40 PM 77.0 °F 28.4 °F 17% 30.01 in 10.0 mi West 17.3 mph 23.0 mph N/A   Clear
2:00 PM 77.0 °F 28.4 °F 17% 30.01 in 10.0 mi West 16.1 mph - N/A   Clear
2:20 PM 78.8 °F 28.4 °F 16% 30.01 in 10.0 mi West 15.0 mph - N/A   Unknown
2:40 PM 78.8 °F 28.4 °F 16% 30.00 in 10.0 mi WNW 16.1 mph 23.0 mph N/A   Clear
3:00 PM 77.0 °F 30.2 °F 18% 30.01 in 10.0 mi West 19.6 mph - N/A   Clear
3:20 PM 77.0 °F 32.0 °F 19% 30.01 in 10.0 mi West 19.6 mph - N/A   Clear
3:40 PM - - N/A% - - North - - N/A   Unknown
4:00 PM 75.2 °F 32.0 °F 21% 30.01 in 10.0 mi West 20.7 mph - N/A   Unknown
4:20 PM 75.2 °F 32.0 °F 21% 30.01 in 10.0 mi West 20.7 mph - N/A   Unknown
4:40 PM 73.4 °F 32.0 °F 22% 30.01 in 10.0 mi West 19.6 mph 25.3 mph N/A   Clear
5:00 PM 73.4 °F 32.0 °F 22% 30.01 in 10.0 mi WNW 18.4 mph - N/A   Clear
5:20 PM 71.6 °F 32.0 °F 23% 30.01 in 10.0 mi West 17.3 mph 23.0 mph N/A   Clear
5:40 PM 71.6 °F 30.2 °F 22% 30.01 in 10.0 mi WNW 13.8 mph - N/A   Clear
6:00 PM 69.8 °F 30.2 °F 23% 30.01 in 10.0 mi WNW 15.0 mph 21.9 mph N/A   Clear
6:20 PM 68.0 °F 30.2 °F 24% 30.02 in 10.0 mi WNW 10.4 mph 17.3 mph N/A   Clear
6:40 PM 66.2 °F 32.0 °F 28% 30.02 in 10.0 mi WNW 10.4 mph - N/A   Clear
7:00 PM 66.2 °F 32.0 °F 28% 30.02 in 10.0 mi WNW 12.7 mph - N/A   Clear
7:20 PM 64.4 °F 32.0 °F 30% 30.02 in 10.0 mi WNW 13.8 mph - N/A   Clear
7:40 PM 64.4 °F 30.2 °F 28% 30.03 in 10.0 mi WNW 11.5 mph - N/A   Clear
8:00 PM 64.4 °F 30.2 °F 28% 30.03 in 10.0 mi WNW 15.0 mph - N/A   Clear
8:20 PM 64.4 °F 28.4 °F 26% 30.04 in 10.0 mi WNW 9.2 mph - N/A   Clear
8:40 PM 64.4 °F 28.4 °F 26% 30.04 in 10.0 mi WNW 6.9 mph - N/A   Clear
9:00 PM 62.6 °F 26.6 °F 26% 30.04 in 10.0 mi WNW 10.4 mph - N/A   Clear
9:20 PM 62.6 °F 26.6 °F 26% 30.05 in 10.0 mi WNW 10.4 mph - N/A   Clear
9:40 PM 62.6 °F 26.6 °F 26% 30.06 in 10.0 mi WNW 12.7 mph - N/A   Clear
10:00 PM 62.6 °F 26.6 °F 26% 30.06 in 10.0 mi WNW 15.0 mph - N/A   Clear
10:20 PM 62.6 °F 26.6 °F 26% 30.07 in 10.0 mi WNW 13.8 mph - N/A   Clear
10:40 PM 62.6 °F 26.6 °F 26% 30.07 in 10.0 mi WNW 15.0 mph - N/A   Clear
11:00 PM 62.6 °F 26.6 °F 26% 30.07 in 10.0 mi WNW 15.0 mph - N/A   Clear
11:20 PM 62.6 °F 28.4 °F 27% 30.08 in 10.0 mi WNW 12.7 mph 20.7 mph N/A   Clear
11:40 PM 62.6 °F 28.4 °F 27% 30.08 in 10.0 mi WNW 12.7 mph - N/A   Partly Cloudy